createdAt,value
2022-09-22T00:03:12.474Z,63.40
2022-09-22T00:06:40.045Z,63.30
2022-09-22T00:10:09.513Z,63.10
2022-09-22T00:13:34.263Z,63.20
2022-09-22T00:17:01.013Z,63.20
2022-09-22T00:20:25.516Z,63.20
2022-09-22T00:23:51.302Z,63.30
2022-09-22T00:27:15.499Z,63.20
2022-09-22T00:30:42.294Z,63.10
2022-09-22T00:34:06.405Z,63.30
2022-09-22T00:37:33.138Z,63.50
2022-09-22T00:41:00.771Z,63.80
2022-09-22T00:44:37.346Z,63.70
2022-09-22T00:48:03.956Z,64.00
2022-09-22T00:51:37.138Z,64.10
2022-09-22T00:55:04.617Z,64.10
2022-09-22T00:58:33.578Z,64.00
2022-09-22T01:01:57.614Z,63.90
2022-09-22T01:05:24.604Z,64.10
2022-09-22T01:08:48.761Z,63.80
2022-09-22T01:12:12.754Z,63.80
2022-09-22T01:15:43.567Z,63.70
2022-09-22T01:19:34.246Z,63.70
2022-09-22T01:23:28.827Z,63.70
2022-09-22T01:27:09.543Z,63.80
2022-09-22T01:30:37.974Z,64.10
2022-09-22T01:34:07.702Z,64.00
2022-09-22T01:37:40.976Z,64.00
2022-09-22T01:41:08.695Z,63.90
2022-09-22T01:44:35.768Z,64.00
2022-09-22T01:48:07.064Z,64.00
2022-09-22T01:51:36.000Z,63.90
2022-09-22T01:55:06.475Z,63.90
2022-09-22T01:58:33.154Z,63.90
2022-09-22T02:02:01.706Z,63.90
2022-09-22T02:05:35.571Z,64.80
2022-09-22T02:09:03.309Z,64.00
2022-09-22T02:12:27.808Z,63.80
2022-09-22T02:16:05.079Z,64.00
2022-09-22T02:19:33.247Z,63.90
2022-09-22T02:22:58.974Z,63.90
2022-09-22T02:26:26.311Z,64.00
2022-09-22T02:29:53.800Z,63.90
2022-09-22T02:33:19.155Z,64.60
2022-09-22T02:36:56.748Z,63.90
2022-09-22T02:40:27.870Z,64.00
2022-09-22T02:43:56.838Z,64.30
2022-09-22T02:47:27.543Z,64.30
2022-09-22T02:50:52.532Z,64.00
2022-09-22T02:54:16.827Z,63.90
2022-09-22T02:57:43.346Z,63.90
2022-09-22T03:01:07.800Z,63.90
2022-09-22T03:04:31.702Z,63.90
2022-09-22T03:07:55.819Z,64.00
2022-09-22T03:11:19.738Z,63.90
2022-09-22T03:14:45.180Z,64.00
2022-09-22T03:18:09.754Z,64.00
2022-09-22T03:21:33.722Z,64.00
2022-09-22T03:24:58.039Z,64.10
2022-09-22T03:28:21.808Z,64.40
2022-09-22T03:31:47.102Z,64.40
2022-09-22T03:35:10.946Z,64.40
2022-09-22T03:38:34.812Z,64.40
2022-09-22T03:41:58.780Z,64.40
2022-09-22T03:45:22.790Z,64.50
2022-09-22T03:48:48.430Z,65.20
2022-09-22T03:52:12.945Z,64.60
2022-09-22T03:55:37.193Z,65.30
2022-09-22T03:59:00.945Z,64.50
2022-09-22T04:02:24.838Z,64.40
2022-09-22T04:05:53.240Z,64.30
2022-09-22T04:09:18.486Z,64.30
2022-09-22T04:12:43.154Z,64.40
2022-09-22T04:16:07.247Z,64.20
2022-09-22T04:19:35.798Z,64.30
2022-09-22T04:23:01.169Z,64.40
2022-09-22T04:26:24.842Z,64.40
2022-09-22T04:29:48.871Z,64.60
2022-09-22T04:33:17.645Z,64.50
2022-09-22T04:36:41.921Z,64.70
2022-09-22T04:40:08.306Z,64.90
2022-09-22T04:43:31.883Z,65.00
2022-09-22T04:46:57.051Z,65.20
2022-09-22T04:50:23.646Z,65.20
2022-09-22T04:53:47.274Z,65.30
2022-09-22T04:57:12.161Z,65.30
2022-09-22T05:00:35.852Z,65.30
2022-09-22T05:04:00.427Z,65.30
2022-09-22T05:07:29.832Z,65.30
2022-09-22T05:10:53.909Z,65.40
2022-09-22T05:14:24.120Z,65.40
2022-09-22T05:17:51.683Z,65.50
2022-09-22T05:21:16.191Z,65.60
2022-09-22T05:24:42.440Z,65.70
2022-09-22T05:28:05.958Z,65.80
2022-09-22T05:31:30.898Z,65.80
2022-09-22T05:34:55.413Z,65.90
2022-09-22T05:38:20.953Z,65.90
2022-09-22T05:41:44.490Z,65.70
2022-09-22T05:45:09.386Z,66.00
2022-09-22T05:48:34.355Z,65.70
2022-09-22T05:51:58.914Z,65.40
2022-09-22T05:55:22.495Z,65.10
2022-09-22T05:58:48.067Z,65.40
2022-09-22T06:02:25.067Z,65.50
2022-09-22T06:05:51.550Z,65.00
2022-09-22T06:09:15.111Z,64.50
2022-09-22T06:12:39.232Z,64.90
2022-09-22T06:16:03.214Z,64.10
2022-09-22T06:19:28.744Z,64.50
2022-09-22T06:22:54.984Z,64.90
2022-09-22T06:26:18.527Z,64.60
2022-09-22T06:29:42.865Z,63.80
2022-09-22T06:33:06.440Z,65.40
2022-09-22T06:36:31.550Z,65.90
2022-09-22T06:39:56.452Z,57.90
2022-09-22T06:43:22.770Z,53.20
2022-09-22T06:46:46.669Z,51.80
2022-09-22T06:50:10.588Z,49.50
2022-09-22T06:53:34.110Z,47.40
2022-09-22T06:56:59.075Z,46.60
2022-09-22T07:00:22.885Z,46.00
2022-09-22T07:03:46.911Z,44.90
2022-09-22T07:07:10.474Z,45.20
2022-09-22T07:10:37.726Z,44.50
2022-09-22T07:14:03.049Z,44.40
2022-09-22T07:17:31.707Z,45.20
2022-09-22T07:21:02.723Z,44.60
2022-09-22T07:24:27.964Z,44.80
2022-09-22T07:27:51.635Z,44.50
2022-09-22T07:31:17.275Z,45.70
2022-09-22T07:34:40.904Z,44.60
2022-09-22T07:38:04.732Z,42.60
2022-09-22T07:41:29.983Z,43.50
2022-09-22T07:45:11.364Z,41.30
2022-09-22T07:48:41.834Z,41.60
2022-09-22T07:52:05.447Z,41.80
2022-09-22T07:55:29.106Z,42.70
2022-09-22T07:58:54.360Z,42.60
2022-09-22T08:02:18.088Z,41.50
2022-09-22T08:05:43.076Z,41.30
2022-09-22T08:09:08.138Z,43.20
2022-09-22T08:12:32.282Z,43.00
2022-09-22T08:15:56.447Z,41.20
2022-09-22T08:19:21.194Z,40.60
2022-09-22T08:22:46.264Z,38.10
2022-09-22T08:26:10.190Z,36.60
2022-09-22T08:29:33.791Z,37.10
2022-09-22T08:33:00.608Z,37.90
2022-09-22T08:36:25.859Z,38.10
2022-09-22T08:39:51.351Z,36.40
2022-09-22T08:43:15.406Z,35.60
2022-09-22T08:46:44.087Z,34.10
2022-09-22T08:50:38.545Z,32.40
2022-09-22T08:54:04.508Z,34.10
2022-09-22T08:57:57.708Z,33.70
2022-09-22T09:01:43.279Z,33.70
2022-09-22T09:05:39.042Z,31.40
2022-09-22T09:09:18.115Z,31.60
2022-09-22T09:12:57.205Z,33.40
2022-09-22T09:16:46.045Z,33.40
2022-09-22T09:20:17.948Z,32.00
2022-09-22T09:27:36.956Z,34.60
2022-09-22T09:31:08.957Z,32.60
2022-09-22T09:34:33.807Z,30.00
2022-09-22T09:38:01.179Z,30.30
2022-09-22T09:41:31.294Z,30.50
2022-09-22T09:45:02.452Z,30.40
2022-09-22T09:48:33.820Z,29.10
2022-09-22T09:52:00.100Z,31.30
2022-09-22T09:55:27.007Z,33.60
2022-09-22T09:59:15.909Z,32.40
2022-09-22T10:02:50.006Z,32.00
2022-09-22T10:06:16.128Z,30.10
2022-09-22T10:09:40.894Z,31.20
2022-09-22T10:13:31.729Z,30.30
2022-09-22T10:16:55.325Z,28.90
2022-09-22T10:20:23.252Z,28.40
2022-09-22T10:23:49.480Z,28.20
2022-09-22T10:27:22.014Z,28.30
2022-09-22T10:30:59.158Z,27.90
2022-09-22T10:34:31.486Z,29.60
2022-09-22T10:37:58.170Z,27.80
2022-09-22T10:41:27.179Z,28.50
2022-09-22T10:44:52.026Z,30.10
2022-09-22T10:48:23.661Z,30.30
2022-09-22T10:52:00.410Z,30.50
2022-09-22T10:55:30.710Z,29.90
2022-09-22T10:59:28.054Z,30.10
2022-09-22T11:03:32.831Z,29.70
2022-09-22T11:07:48.403Z,30.80
2022-09-22T11:11:38.983Z,31.60
2022-09-22T11:15:35.042Z,33.40
2022-09-22T11:19:21.672Z,34.50
2022-09-22T11:22:56.981Z,33.10
2022-09-22T11:26:43.608Z,33.10
2022-09-22T11:30:20.413Z,33.80
2022-09-22T11:34:06.743Z,33.70
2022-09-22T11:37:46.640Z,33.20
2022-09-22T11:41:25.427Z,31.90
2022-09-22T11:45:02.667Z,33.70
2022-09-22T11:48:39.590Z,33.90
2022-09-22T11:52:18.461Z,33.40
2022-09-22T11:55:49.890Z,34.20
2022-09-22T11:59:31.126Z,33.80
2022-09-22T12:03:01.935Z,32.70
2022-09-22T12:06:33.071Z,32.90
2022-09-22T12:10:01.028Z,33.00
2022-09-22T12:13:27.450Z,33.10
2022-09-22T12:16:58.694Z,33.70
2022-09-22T12:20:34.452Z,34.60
2022-09-22T12:24:02.936Z,34.40
2022-09-22T12:27:28.650Z,34.10
2022-09-22T12:31:06.880Z,34.30
2022-09-22T12:34:34.267Z,33.90
2022-09-22T12:38:01.759Z,32.50
2022-09-22T12:41:26.751Z,33.20
2022-09-22T12:44:56.001Z,35.00
2022-09-22T12:48:24.547Z,35.40
2022-09-22T12:51:48.332Z,35.60
2022-09-22T12:55:20.316Z,35.20
2022-09-22T12:58:45.413Z,34.80
2022-09-22T13:02:26.409Z,34.70
2022-09-22T13:05:50.103Z,34.30
2022-09-22T13:09:22.604Z,33.20
2022-09-22T13:13:11.844Z,31.90
2022-09-22T13:16:39.584Z,30.60
2022-09-22T13:20:16.177Z,30.50
2022-09-22T13:23:39.917Z,31.00
2022-09-22T13:27:08.329Z,30.90
2022-09-22T13:30:32.166Z,30.10
2022-09-22T13:33:57.420Z,31.10
2022-09-22T13:37:25.000Z,30.00
2022-09-22T13:40:50.835Z,32.10
2022-09-22T13:44:15.550Z,31.80
2022-09-22T13:47:40.647Z,32.10
2022-09-22T13:51:09.100Z,32.00
2022-09-22T13:54:35.744Z,32.10
2022-09-22T13:58:00.238Z,33.30
2022-09-22T14:01:26.887Z,32.70
2022-09-22T14:04:52.553Z,32.50
2022-09-22T14:08:21.337Z,31.80
2022-09-22T14:11:45.219Z,32.10
2022-09-22T14:15:34.334Z,32.50
2022-09-22T14:19:02.983Z,31.90
2022-09-22T14:22:28.564Z,32.10
2022-09-22T14:25:53.697Z,32.50
2022-09-22T14:29:20.648Z,32.90
2022-09-22T14:32:50.244Z,33.60
2022-09-22T14:36:18.444Z,34.10
2022-09-22T14:39:42.914Z,33.80
2022-09-22T14:43:22.517Z,34.10
2022-09-22T14:46:46.110Z,34.90
2022-09-22T14:50:18.744Z,34.30
2022-09-22T14:53:45.694Z,34.30
2022-09-22T14:57:09.813Z,34.60
2022-09-22T15:00:52.552Z,34.10
2022-09-22T15:04:25.251Z,35.00
2022-09-22T15:07:49.174Z,34.70
2022-09-22T15:11:13.033Z,35.10
2022-09-22T15:14:44.234Z,35.10
2022-09-22T15:18:19.115Z,34.70
2022-09-22T15:21:46.192Z,35.10
2022-09-22T15:25:16.199Z,35.00
2022-09-22T15:28:40.442Z,35.40
2022-09-22T15:32:07.146Z,35.20
2022-09-22T15:35:37.890Z,35.70
2022-09-22T15:39:07.462Z,35.70
2022-09-22T15:42:31.367Z,35.60
2022-09-22T15:45:59.744Z,36.00
2022-09-22T15:49:26.271Z,36.20
2022-09-22T15:52:51.566Z,36.40
2022-09-22T15:56:19.008Z,36.50
2022-09-22T15:59:42.877Z,36.70
2022-09-22T16:03:22.180Z,36.70
2022-09-22T16:06:51.132Z,37.00
2022-09-22T16:10:17.788Z,37.10
2022-09-22T16:13:41.617Z,37.50
2022-09-22T16:17:05.308Z,37.80
2022-09-22T16:20:29.319Z,38.10
2022-09-22T16:23:54.674Z,38.20
2022-09-22T16:27:20.293Z,38.90
2022-09-22T16:30:43.905Z,38.80
2022-09-22T16:34:08.154Z,39.30
2022-09-22T16:37:31.744Z,39.60
2022-09-22T16:41:02.035Z,40.10
2022-09-22T16:44:27.239Z,40.40
2022-09-22T16:47:50.748Z,40.50
2022-09-22T16:51:19.070Z,40.50
2022-09-22T16:54:42.596Z,40.70
2022-09-22T16:58:13.040Z,41.30
2022-09-22T17:01:38.784Z,41.50
2022-09-22T17:05:05.987Z,41.80
2022-09-22T17:08:29.540Z,41.90
2022-09-22T17:11:53.537Z,42.20
2022-09-22T17:15:17.459Z,42.40
2022-09-22T17:18:42.498Z,42.20
2022-09-22T17:27:14.834Z,43.10
2022-09-22T17:30:38.934Z,43.60
2022-09-22T17:34:04.364Z,44.10
2022-09-22T17:37:27.934Z,44.30
2022-09-22T17:40:52.179Z,44.60
2022-09-22T17:44:21.274Z,45.20
2022-09-22T17:48:02.374Z,45.50
2022-09-22T17:51:52.146Z,45.60
2022-09-22T17:55:20.446Z,46.40
2022-09-22T17:58:44.583Z,46.70
2022-09-22T18:02:08.776Z,46.80
2022-09-22T18:05:32.523Z,46.90
2022-09-22T18:09:02.125Z,47.20
2022-09-22T18:12:26.331Z,47.50
2022-09-22T18:15:52.204Z,47.80
2022-09-22T18:19:15.844Z,47.90
2022-09-22T18:22:39.879Z,48.40
2022-09-22T18:26:04.886Z,48.40
2022-09-22T18:29:28.415Z,48.90
2022-09-22T18:32:52.414Z,49.10
2022-09-22T18:36:15.981Z,49.50
2022-09-22T18:39:40.678Z,49.90
2022-09-22T18:43:10.317Z,49.90
2022-09-22T18:46:34.641Z,50.20
2022-09-22T18:49:58.610Z,50.60
2022-09-22T18:53:22.508Z,51.00
2022-09-22T18:56:47.706Z,51.10
2022-09-22T19:00:14.843Z,51.40
2022-09-22T19:03:38.338Z,51.60
2022-09-22T19:07:19.081Z,51.80
2022-09-22T19:10:42.609Z,51.90
2022-09-22T19:14:07.837Z,52.30
2022-09-22T19:17:32.790Z,52.30
2022-09-22T19:20:56.478Z,52.40
2022-09-22T19:24:23.065Z,52.70
2022-09-22T19:27:46.717Z,52.90
2022-09-22T19:31:10.396Z,53.30
2022-09-22T19:34:35.446Z,53.50
2022-09-22T19:37:59.741Z,53.70
2022-09-22T19:41:26.655Z,53.90
2022-09-22T19:44:50.485Z,53.90
2022-09-22T19:48:14.248Z,54.10
2022-09-22T19:51:39.539Z,54.00
2022-09-22T19:55:03.322Z,54.10
2022-09-22T19:58:26.926Z,54.30
2022-09-22T20:01:50.998Z,54.30
2022-09-22T20:05:20.592Z,54.90
2022-09-22T20:08:45.669Z,55.00
2022-09-22T20:12:09.236Z,55.30
2022-09-22T20:15:32.860Z,55.50
2022-09-22T20:18:56.606Z,55.70
2022-09-22T20:22:24.023Z,55.90
2022-09-22T20:25:49.951Z,56.00
2022-09-22T20:29:14.086Z,56.00
2022-09-22T20:32:37.712Z,56.40
2022-09-22T20:36:01.548Z,56.50
2022-09-22T20:39:25.249Z,56.70
2022-09-22T20:42:53.019Z,56.80
2022-09-22T20:46:17.070Z,56.90
2022-09-22T20:49:42.343Z,57.10
2022-09-22T20:53:06.077Z,57.10
2022-09-22T20:56:29.781Z,57.20
2022-09-22T20:59:54.826Z,57.20
2022-09-22T21:03:18.507Z,57.00
2022-09-22T21:06:42.168Z,57.60
2022-09-22T21:10:23.851Z,57.00
2022-09-22T21:13:47.539Z,57.00
2022-09-22T21:17:13.598Z,57.00
2022-09-22T21:20:37.322Z,57.20
2022-09-22T21:24:02.223Z,57.40
2022-09-22T21:27:25.966Z,57.30
2022-09-22T21:30:55.940Z,57.20
2022-09-22T21:34:21.040Z,57.20
2022-09-22T21:37:44.720Z,57.00
2022-09-22T21:41:10.821Z,57.20
2022-09-22T21:44:35.748Z,57.10
2022-09-22T21:47:59.372Z,57.30
2022-09-22T21:51:24.259Z,56.30
2022-09-22T21:54:47.920Z,57.00
2022-09-22T21:58:11.458Z,57.10
2022-09-22T22:01:37.663Z,56.40
2022-09-22T22:05:01.269Z,55.80
2022-09-22T22:08:26.169Z,55.70
2022-09-22T22:11:53.762Z,54.80
2022-09-22T22:15:17.434Z,54.90
2022-09-22T22:18:42.269Z,53.70
2022-09-22T22:22:06.501Z,53.00
2022-09-22T22:25:34.210Z,52.00
2022-09-22T22:28:57.864Z,49.90
2022-09-22T22:32:21.732Z,49.50
2022-09-22T22:35:51.107Z,49.10
2022-09-22T22:39:14.783Z,48.90
2022-09-22T22:42:39.805Z,49.20
2022-09-22T22:46:05.987Z,49.00
2022-09-22T22:49:30.258Z,49.30
2022-09-22T22:52:54.299Z,49.40
2022-09-22T22:56:19.840Z,49.50
2022-09-22T22:59:44.872Z,50.10
2022-09-22T23:03:09.398Z,50.30
2022-09-22T23:06:35.728Z,51.00
2022-09-22T23:10:06.943Z,51.20
2022-09-22T23:13:31.939Z,51.30
2022-09-22T23:16:57.509Z,51.50
2022-09-22T23:20:21.511Z,51.80
2022-09-22T23:23:45.618Z,52.40
2022-09-22T23:27:09.155Z,52.70
2022-09-22T23:30:34.663Z,53.30
2022-09-22T23:33:59.802Z,53.80
2022-09-22T23:37:25.913Z,54.20
2022-09-22T23:40:49.430Z,55.10
2022-09-22T23:44:13.011Z,55.40
2022-09-22T23:47:36.690Z,56.00
2022-09-22T23:51:02.208Z,56.40
2022-09-22T23:54:26.677Z,56.90
2022-09-22T23:57:50.393Z,57.20
